createdAt,value
2017-10-15T00:00:34.137Z,11.23
2017-10-15T00:03:01.820Z,10.57
2017-10-15T00:05:29.487Z,10.47
2017-10-15T00:07:57.120Z,11.20
2017-10-15T00:10:24.796Z,10.27
2017-10-15T00:12:52.459Z,10.20
2017-10-15T00:15:20.076Z,10.73
2017-10-15T00:17:47.687Z,10.90
2017-10-15T00:20:15.359Z,11.33
2017-10-15T00:22:42.978Z,10.90
2017-10-15T00:25:10.644Z,9.83
2017-10-15T00:27:38.311Z,10.97
2017-10-15T00:30:05.927Z,10.20
2017-10-15T00:32:33.611Z,11.07
2017-10-15T00:35:01.293Z,10.60
2017-10-15T00:37:28.972Z,12.07
2017-10-15T00:39:56.587Z,10.50
2017-10-15T00:42:24.251Z,11.60
2017-10-15T00:44:51.880Z,11.90
2017-10-15T00:47:19.547Z,11.50
2017-10-15T00:49:47.216Z,11.60
2017-10-15T00:52:14.892Z,12.43
2017-10-15T00:54:42.509Z,12.70
2017-10-15T00:57:10.194Z,13.70
2017-10-15T00:59:37.836Z,12.30
2017-10-15T01:02:05.456Z,11.77
2017-10-15T01:04:33.115Z,12.20
2017-10-15T01:07:00.736Z,11.93
2017-10-15T01:09:28.418Z,11.47
2017-10-15T01:11:56.144Z,10.53
2017-10-15T01:14:23.750Z,12.10
2017-10-15T01:16:51.355Z,11.97
2017-10-15T01:19:19.024Z,11.43
2017-10-15T01:21:46.655Z,13.27
2017-10-15T01:24:14.335Z,10.77
2017-10-15T01:26:42.010Z,11.17
2017-10-15T01:29:09.756Z,11.27
2017-10-15T01:31:37.438Z,12.57
2017-10-15T01:34:05.199Z,11.80
2017-10-15T01:36:32.844Z,11.47
2017-10-15T01:39:00.531Z,11.57
2017-10-15T01:41:28.203Z,11.53
2017-10-15T01:43:55.827Z,12.17
2017-10-15T01:46:23.508Z,11.80
2017-10-15T01:48:51.176Z,10.67
2017-10-15T01:51:18.868Z,12.07
2017-10-15T01:53:46.492Z,11.30
2017-10-15T01:56:14.219Z,10.83
2017-10-15T01:58:41.850Z,11.70
2017-10-15T02:01:09.458Z,10.90
2017-10-15T02:03:37.126Z,11.90
2017-10-15T02:06:04.761Z,12.27
2017-10-15T02:08:32.379Z,11.80
2017-10-15T02:11:00.099Z,13.50
2017-10-15T02:13:27.716Z,11.37
2017-10-15T02:15:55.412Z,11.83
2017-10-15T02:18:23.079Z,11.97
2017-10-15T02:20:50.695Z,12.57
2017-10-15T02:23:18.318Z,12.80
2017-10-15T02:25:45.987Z,13.13
2017-10-15T02:28:13.602Z,12.63
2017-10-15T02:30:41.217Z,13.23
2017-10-15T02:33:08.887Z,12.97
2017-10-15T02:35:36.507Z,13.87
2017-10-15T02:38:04.216Z,13.50
2017-10-15T02:40:31.895Z,13.40
2017-10-15T02:42:59.567Z,14.10
2017-10-15T02:45:27.253Z,14.90
2017-10-15T02:47:54.940Z,15.80
2017-10-15T02:50:22.553Z,16.37
2017-10-15T02:52:50.250Z,17.17
2017-10-15T02:55:17.915Z,18.23
2017-10-15T02:57:45.527Z,16.87
2017-10-15T03:00:13.126Z,16.97
2017-10-15T03:02:40.783Z,16.20
2017-10-15T03:05:08.419Z,15.93
2017-10-15T03:07:36.052Z,15.47
2017-10-15T03:10:03.735Z,15.50
2017-10-15T03:12:31.355Z,14.87
2017-10-15T03:14:58.971Z,16.80
2017-10-15T03:17:26.636Z,15.67
2017-10-15T03:19:54.311Z,16.27
2017-10-15T03:22:21.926Z,17.00
2017-10-15T03:24:49.635Z,16.10
2017-10-15T03:27:17.251Z,15.60
2017-10-15T03:29:44.925Z,14.17
2017-10-15T03:32:12.591Z,14.23
2017-10-15T03:34:40.207Z,17.00
2017-10-15T03:37:07.819Z,16.10
2017-10-15T03:39:35.482Z,15.70
2017-10-15T03:42:03.164Z,15.50
2017-10-15T03:44:30.845Z,14.30
2017-10-15T03:46:58.519Z,14.53
2017-10-15T03:49:26.188Z,14.37
2017-10-15T03:51:53.817Z,14.70
2017-10-15T03:54:21.555Z,14.10
2017-10-15T03:56:49.172Z,13.67
2017-10-15T03:59:16.804Z,12.90
2017-10-15T04:01:44.475Z,12.83
2017-10-15T04:04:12.083Z,14.50
2017-10-15T04:06:39.692Z,13.27
2017-10-15T04:09:07.368Z,12.93
2017-10-15T04:11:34.991Z,13.60
2017-10-15T04:14:02.660Z,14.37
2017-10-15T04:16:30.391Z,12.97
2017-10-15T04:18:58.071Z,13.43
2017-10-15T04:21:25.704Z,13.70
2017-10-15T04:23:53.451Z,13.33
2017-10-15T04:26:21.126Z,11.83
2017-10-15T04:28:48.795Z,12.60
2017-10-15T04:31:16.479Z,14.37
2017-10-15T04:33:44.144Z,13.50
2017-10-15T04:36:11.831Z,14.63
2017-10-15T04:38:39.517Z,14.43
2017-10-15T04:41:07.188Z,14.50
2017-10-15T04:43:35.343Z,13.50
2017-10-15T04:46:03.003Z,13.03
2017-10-15T04:48:30.679Z,13.43
2017-10-15T04:50:58.294Z,14.93
2017-10-15T04:53:25.968Z,16.33
2017-10-15T04:55:53.587Z,16.90
2017-10-15T04:58:21.212Z,15.20
2017-10-15T05:00:48.879Z,19.67
2017-10-15T05:03:16.560Z,42.70
2017-10-15T05:05:44.241Z,24.67
2017-10-15T05:08:11.905Z,25.30
2017-10-15T05:10:39.518Z,22.83
2017-10-15T05:13:07.199Z,19.07
2017-10-15T05:15:34.960Z,14.67
2017-10-15T05:18:02.648Z,13.13
2017-10-15T05:20:30.261Z,11.10
2017-10-15T05:22:57.925Z,32.37
2017-10-15T05:25:25.543Z,56.73
2017-10-15T05:27:53.151Z,37.63
2017-10-15T05:30:20.831Z,17.97
2017-10-15T05:32:48.517Z,17.97
2017-10-15T05:35:16.146Z,15.63
2017-10-15T05:37:43.819Z,15.30
2017-10-15T05:40:11.427Z,13.67
2017-10-15T05:42:39.050Z,12.33
2017-10-15T05:45:06.734Z,11.50
2017-10-15T05:47:34.368Z,12.10
2017-10-15T05:50:01.999Z,12.20
2017-10-15T05:52:29.684Z,12.90
2017-10-15T05:54:57.307Z,10.53
2017-10-15T05:57:24.918Z,12.23
2017-10-15T05:59:52.588Z,10.17
2017-10-15T06:02:20.272Z,10.00
2017-10-15T06:04:47.946Z,11.17
2017-10-15T06:07:15.631Z,11.53
2017-10-15T06:09:43.372Z,11.97
2017-10-15T06:12:11.007Z,9.73
2017-10-15T06:14:38.749Z,11.13
2017-10-15T06:17:06.434Z,10.50
2017-10-15T06:19:34.205Z,13.07
2017-10-15T06:22:01.876Z,11.53
2017-10-15T06:24:29.499Z,10.90
2017-10-15T06:26:57.119Z,10.53
2017-10-15T06:29:24.787Z,9.30
2017-10-15T06:31:52.467Z,9.90
2017-10-15T06:34:20.080Z,8.97
2017-10-15T06:36:47.744Z,8.77
2017-10-15T06:39:15.356Z,8.60
2017-10-15T06:41:42.963Z,7.87
2017-10-15T06:44:10.627Z,9.43
2017-10-15T06:46:38.254Z,9.13
2017-10-15T06:49:05.884Z,7.50
2017-10-15T06:51:33.624Z,8.67
2017-10-15T06:54:01.299Z,9.03
2017-10-15T06:56:28.911Z,8.00
2017-10-15T06:58:56.571Z,8.20
2017-10-15T07:01:24.195Z,7.80
2017-10-15T07:03:51.865Z,7.03
2017-10-15T07:06:19.529Z,8.00
2017-10-15T07:08:47.158Z,8.33
2017-10-15T07:11:14.840Z,9.90
2017-10-15T07:13:42.512Z,9.63
2017-10-15T07:16:10.215Z,8.60
2017-10-15T07:18:37.834Z,8.80
2017-10-15T07:21:05.497Z,9.05
2017-10-15T07:23:33.122Z,8.23
2017-10-15T07:26:00.792Z,9.70
2017-10-15T07:28:28.507Z,8.10
2017-10-15T07:30:56.179Z,8.63
2017-10-15T07:33:23.844Z,7.67
2017-10-15T07:35:51.527Z,7.93
2017-10-15T07:38:19.144Z,9.77
2017-10-15T07:40:46.769Z,9.57
2017-10-15T07:43:14.497Z,8.93
2017-10-15T07:45:42.115Z,9.67
2017-10-15T07:48:09.804Z,9.10
2017-10-15T07:50:37.466Z,7.77
2017-10-15T07:53:05.140Z,7.83
2017-10-15T07:55:32.755Z,7.80
2017-10-15T07:58:00.484Z,7.50
2017-10-15T08:00:28.123Z,10.17
2017-10-15T08:02:55.740Z,8.90
2017-10-15T08:05:23.471Z,17.37
2017-10-15T08:07:51.092Z,12.70
2017-10-15T08:10:18.732Z,12.37
2017-10-15T08:12:46.451Z,10.80
2017-10-15T08:15:14.067Z,10.97
2017-10-15T08:17:41.682Z,10.03
2017-10-15T08:20:09.355Z,9.60
2017-10-15T08:22:37.035Z,9.53
2017-10-15T08:25:04.651Z,8.53
2017-10-15T08:27:32.320Z,10.90
2017-10-15T08:29:59.928Z,11.00
2017-10-15T08:32:27.560Z,10.00
2017-10-15T08:34:55.271Z,7.07
2017-10-15T08:37:22.897Z,6.67
2017-10-15T08:39:50.533Z,11.10
2017-10-15T08:42:18.212Z,8.17
2017-10-15T08:44:45.972Z,6.40
2017-10-15T08:47:13.591Z,6.17
2017-10-15T08:49:41.308Z,5.40
2017-10-15T08:52:08.975Z,6.07
2017-10-15T08:54:36.593Z,6.10
2017-10-15T08:57:04.375Z,5.40
2017-10-15T08:59:32.041Z,6.30
2017-10-15T09:01:59.677Z,5.77
2017-10-15T09:04:27.360Z,11.50
2017-10-15T09:06:55.045Z,6.77
2017-10-15T09:09:22.692Z,8.40
2017-10-15T09:11:50.356Z,8.63
2017-10-15T09:14:17.988Z,7.70
2017-10-15T09:16:45.615Z,7.80
2017-10-15T09:19:13.349Z,8.32
2017-10-15T09:21:41.019Z,5.50
2017-10-15T09:24:08.627Z,5.33
2017-10-15T09:26:36.287Z,5.60
2017-10-15T09:29:03.904Z,5.03
2017-10-15T09:31:31.514Z,5.20
2017-10-15T09:33:59.175Z,4.70
2017-10-15T09:36:26.839Z,6.47
2017-10-15T09:38:54.456Z,5.77
2017-10-15T09:41:22.173Z,5.63
2017-10-15T09:43:49.790Z,6.77
2017-10-15T09:46:17.394Z,5.60
2017-10-15T09:48:45.116Z,5.17
2017-10-15T09:51:12.716Z,4.67
2017-10-15T09:53:40.323Z,4.47
2017-10-15T09:56:07.967Z,4.83
2017-10-15T09:58:35.580Z,5.27
2017-10-15T10:01:03.252Z,5.43
2017-10-15T10:03:30.972Z,5.50
2017-10-15T10:05:58.630Z,5.23
2017-10-15T10:08:26.291Z,4.70
2017-10-15T10:10:53.959Z,5.20
2017-10-15T10:13:21.571Z,4.50
2017-10-15T10:15:49.183Z,5.00
2017-10-15T10:18:16.843Z,6.47
2017-10-15T10:20:44.455Z,4.93
2017-10-15T10:23:12.063Z,4.95
2017-10-15T10:25:39.779Z,5.30
2017-10-15T10:28:07.395Z,5.17
2017-10-15T10:30:35.003Z,4.63
2017-10-15T10:33:02.691Z,5.20
2017-10-15T10:35:30.307Z,5.00
2017-10-15T10:37:57.964Z,4.33
2017-10-15T10:40:25.628Z,4.20
2017-10-15T10:42:53.304Z,4.20
2017-10-15T10:45:20.919Z,5.70
2017-10-15T10:47:48.567Z,4.97
2017-10-15T10:50:16.237Z,5.37
2017-10-15T10:52:43.835Z,5.07
2017-10-15T10:55:11.482Z,4.93
2017-10-15T10:57:39.091Z,5.57
2017-10-15T11:00:06.706Z,5.40
2017-10-15T11:02:34.356Z,4.47
2017-10-15T11:05:01.988Z,5.47
2017-10-15T11:07:29.608Z,4.30
2017-10-15T11:09:57.275Z,5.70
2017-10-15T11:12:24.952Z,7.53
2017-10-15T11:14:52.556Z,4.87
2017-10-15T11:17:20.210Z,4.60
2017-10-15T11:19:47.831Z,4.23
2017-10-15T11:22:15.510Z,5.37
2017-10-15T11:24:43.228Z,4.90
2017-10-15T11:27:10.831Z,4.87
2017-10-15T11:29:38.435Z,4.10
2017-10-15T11:32:06.164Z,4.60
2017-10-15T11:34:33.771Z,5.03
2017-10-15T11:37:01.396Z,4.63
2017-10-15T11:39:29.112Z,5.07
2017-10-15T11:41:56.791Z,5.30
2017-10-15T11:44:24.454Z,4.13
2017-10-15T11:46:52.108Z,4.50
2017-10-15T11:49:19.784Z,4.30
2017-10-15T11:51:47.415Z,4.63
2017-10-15T11:54:15.088Z,5.00
2017-10-15T11:56:42.691Z,3.97
2017-10-15T11:59:10.356Z,4.60
2017-10-15T12:01:38.020Z,5.37
2017-10-15T12:04:05.623Z,4.70
2017-10-15T12:06:33.227Z,4.23
2017-10-15T12:09:00.943Z,4.60
2017-10-15T12:11:28.555Z,3.70
2017-10-15T12:13:56.294Z,5.20
2017-10-15T12:16:23.954Z,5.83
2017-10-15T12:18:51.671Z,5.17
2017-10-15T12:21:19.339Z,4.60
2017-10-15T12:23:46.995Z,4.80
2017-10-15T12:26:14.615Z,5.27
2017-10-15T12:28:42.293Z,4.47
2017-10-15T12:31:10.018Z,5.60
2017-10-15T12:33:37.694Z,4.90
2017-10-15T12:36:05.351Z,4.63
2017-10-15T12:38:33.035Z,4.10
2017-10-15T12:41:00.643Z,4.47
2017-10-15T12:43:28.307Z,4.47
2017-10-15T12:45:55.959Z,4.23
2017-10-15T12:48:23.556Z,4.77
2017-10-15T12:50:51.163Z,4.17
2017-10-15T12:53:18.906Z,4.10
2017-10-15T12:55:46.567Z,4.47
2017-10-15T12:58:14.219Z,4.30
2017-10-15T13:00:41.884Z,4.20
2017-10-15T13:03:09.551Z,4.37
2017-10-15T13:05:37.151Z,4.50
2017-10-15T13:08:04.855Z,5.37
2017-10-15T13:10:32.467Z,4.17
2017-10-15T13:13:00.090Z,5.20
2017-10-15T13:15:27.840Z,5.80
2017-10-15T13:17:55.500Z,6.20
2017-10-15T13:20:23.220Z,5.03
2017-10-15T13:22:50.999Z,6.03
2017-10-15T13:25:18.630Z,5.30
2017-10-15T13:27:46.364Z,5.03
2017-10-15T13:30:14.042Z,5.83
2017-10-15T13:32:41.660Z,5.00
2017-10-15T13:35:09.341Z,4.77
2017-10-15T13:37:36.990Z,4.70
2017-10-15T13:40:04.643Z,4.53
2017-10-15T13:42:32.265Z,4.80
2017-10-15T13:44:59.935Z,3.77
2017-10-15T13:47:27.541Z,4.27
2017-10-15T13:49:55.212Z,4.20
2017-10-15T13:52:22.948Z,4.43
2017-10-15T13:54:50.555Z,4.23
2017-10-15T13:57:18.150Z,5.20
2017-10-15T13:59:45.872Z,4.93
2017-10-15T14:02:13.600Z,4.90
2017-10-15T14:04:41.262Z,5.20
2017-10-15T14:07:08.988Z,4.80
2017-10-15T14:09:36.651Z,5.10
2017-10-15T14:12:04.271Z,5.03
2017-10-15T14:14:32.055Z,5.70
2017-10-15T14:16:59.676Z,5.40
2017-10-15T14:19:27.356Z,5.60
2017-10-15T14:21:55.031Z,4.90
2017-10-15T14:24:22.691Z,6.17
2017-10-15T14:26:50.315Z,6.37
2017-10-15T14:29:17.973Z,5.57
2017-10-15T14:31:45.586Z,6.40
2017-10-15T14:34:13.207Z,6.20
2017-10-15T14:36:40.911Z,8.20
2017-10-15T14:39:08.585Z,10.10
2017-10-15T14:41:36.262Z,11.30
2017-10-15T14:44:03.933Z,10.50
2017-10-15T14:46:31.556Z,12.57
2017-10-15T14:48:59.183Z,15.10
2017-10-15T14:51:26.920Z,14.77
2017-10-15T14:53:54.611Z,15.60
2017-10-15T14:56:22.289Z,11.30
2017-10-15T14:58:50.015Z,11.40
2017-10-15T15:01:17.697Z,12.23
2017-10-15T15:03:45.427Z,12.47
2017-10-15T15:06:13.303Z,10.70
2017-10-15T15:08:41.039Z,13.37
2017-10-15T15:11:08.707Z,10.80
2017-10-15T15:13:36.444Z,12.53
2017-10-15T15:16:04.136Z,11.07
2017-10-15T15:18:31.808Z,12.87
2017-10-15T15:20:59.555Z,10.73
2017-10-15T15:23:27.171Z,16.37
2017-10-15T15:25:54.844Z,21.27
2017-10-15T15:28:22.519Z,12.83
2017-10-15T15:30:50.195Z,11.73
2017-10-15T15:33:18.756Z,11.10
2017-10-15T15:35:46.427Z,10.93
2017-10-15T15:38:14.103Z,15.10
2017-10-15T15:40:41.722Z,19.93
2017-10-15T15:43:09.384Z,16.97
2017-10-15T15:45:37.028Z,13.10
2017-10-15T15:48:04.642Z,12.00
2017-10-15T15:50:32.410Z,13.90
2017-10-15T15:53:00.140Z,13.70
2017-10-15T15:55:27.747Z,13.83
2017-10-15T15:57:55.416Z,16.37
2017-10-15T16:00:23.083Z,15.90
2017-10-15T16:02:50.743Z,17.07
2017-10-15T16:05:18.410Z,16.93
2017-10-15T16:07:46.026Z,14.90
2017-10-15T16:10:13.647Z,18.30
2017-10-15T16:12:41.340Z,16.67
2017-10-15T16:15:09.052Z,19.40
2017-10-15T16:17:36.687Z,18.77
2017-10-15T16:20:04.356Z,20.63
2017-10-15T16:22:31.989Z,19.93
2017-10-15T16:24:59.671Z,17.60
2017-10-15T16:27:27.387Z,16.57
2017-10-15T16:29:55.085Z,16.13
2017-10-15T16:32:22.691Z,19.00
2017-10-15T16:34:50.428Z,19.90
2017-10-15T16:37:18.051Z,17.87
2017-10-15T16:39:45.664Z,18.63
2017-10-15T16:42:13.392Z,16.03
2017-10-15T16:44:41.063Z,14.93
2017-10-15T16:47:08.716Z,15.70
2017-10-15T16:49:36.435Z,16.20
2017-10-15T16:52:04.059Z,18.17
2017-10-15T16:54:31.731Z,18.30
2017-10-15T16:56:59.399Z,21.00
2017-10-15T16:59:27.011Z,26.57
2017-10-15T17:01:54.735Z,37.13
2017-10-15T17:04:22.407Z,50.70
2017-10-15T17:06:50.103Z,48.50
2017-10-15T17:09:18.399Z,42.50
2017-10-15T17:11:46.071Z,38.10
2017-10-15T17:14:13.702Z,35.40
2017-10-15T17:16:41.375Z,28.07
2017-10-15T17:19:09.106Z,26.87
2017-10-15T17:21:36.835Z,35.80
2017-10-15T17:24:04.456Z,29.57
2017-10-15T17:26:32.170Z,28.20
2017-10-15T17:28:59.791Z,26.93
2017-10-15T17:31:27.504Z,25.33
2017-10-15T17:33:55.271Z,22.80
2017-10-15T17:36:22.944Z,21.60
2017-10-15T17:38:50.699Z,22.10
2017-10-15T17:41:18.415Z,20.80
2017-10-15T17:43:46.068Z,22.73
2017-10-15T17:46:13.687Z,24.07
2017-10-15T17:48:41.375Z,25.97
2017-10-15T17:51:09.067Z,22.60
2017-10-15T17:53:36.743Z,19.57
2017-10-15T17:56:04.415Z,25.13
2017-10-15T17:58:32.099Z,63.87
2017-10-15T18:00:59.867Z,45.20
2017-10-15T18:03:27.563Z,42.60
2017-10-15T18:05:55.262Z,44.13
2017-10-15T18:08:22.903Z,43.67
2017-10-15T18:10:50.623Z,54.80
2017-10-15T18:13:18.307Z,57.03
2017-10-15T18:15:45.982Z,34.67
2017-10-15T18:18:13.650Z,24.20
2017-10-15T18:20:41.306Z,27.23
2017-10-15T18:23:08.979Z,20.30
2017-10-15T18:25:36.674Z,20.10
2017-10-15T18:28:04.302Z,18.93
2017-10-15T18:30:31.984Z,18.57
2017-10-15T18:32:59.699Z,20.70
2017-10-15T18:35:27.306Z,14.50
2017-10-15T18:37:54.939Z,17.47
2017-10-15T18:40:22.654Z,14.63
2017-10-15T18:42:50.331Z,11.23
2017-10-15T18:45:17.943Z,12.00
2017-10-15T18:47:45.671Z,11.90
2017-10-15T18:50:13.317Z,11.70
2017-10-15T18:52:40.949Z,11.70
2017-10-15T18:55:08.627Z,12.37
2017-10-15T18:57:36.308Z,11.10
2017-10-15T19:00:03.987Z,13.33
2017-10-15T19:02:31.706Z,11.30
2017-10-15T19:04:59.399Z,8.50
2017-10-15T19:07:27.028Z,9.80
2017-10-15T19:09:54.755Z,8.30
2017-10-15T19:12:22.372Z,7.13
2017-10-15T19:14:49.983Z,10.23
2017-10-15T19:17:17.702Z,8.07
2017-10-15T19:19:45.376Z,9.63
2017-10-15T19:22:13.048Z,9.83
2017-10-15T19:24:40.809Z,9.33
2017-10-15T19:27:08.453Z,11.13
2017-10-15T19:29:36.156Z,12.90
2017-10-15T19:32:03.911Z,11.97
2017-10-15T19:34:31.588Z,10.57
2017-10-15T19:36:59.252Z,8.57
2017-10-15T19:39:26.919Z,9.07
2017-10-15T19:41:54.543Z,9.00
2017-10-15T19:44:22.160Z,8.10
2017-10-15T19:46:49.862Z,7.20
2017-10-15T19:49:17.475Z,6.90
2017-10-15T19:51:45.091Z,7.03
2017-10-15T19:54:12.807Z,6.70
2017-10-15T19:56:40.423Z,7.50
2017-10-15T19:59:08.039Z,7.10
2017-10-15T20:01:35.768Z,7.90
2017-10-15T20:04:03.395Z,7.50
2017-10-15T20:06:31.060Z,8.50
2017-10-15T20:08:58.727Z,10.60
2017-10-15T20:11:26.415Z,14.03
2017-10-15T20:13:54.027Z,15.90
2017-10-15T20:16:21.759Z,15.57
2017-10-15T20:18:49.403Z,15.50
2017-10-15T20:21:17.127Z,15.17
2017-10-15T20:23:44.892Z,13.77
2017-10-15T20:26:12.572Z,15.63
2017-10-15T20:28:40.239Z,14.87
2017-10-15T20:31:07.935Z,14.33
2017-10-15T20:33:35.563Z,15.50
2017-10-15T20:36:03.233Z,15.37
2017-10-15T20:38:30.899Z,16.70
2017-10-15T20:40:58.511Z,16.03
2017-10-15T20:43:26.126Z,17.50
2017-10-15T20:45:53.859Z,18.80
2017-10-15T20:48:21.479Z,17.60
2017-10-15T20:50:49.155Z,19.37
2017-10-15T20:53:16.876Z,18.00
2017-10-15T20:55:44.547Z,17.77
2017-10-15T20:58:12.163Z,18.57
2017-10-15T21:00:39.888Z,18.27
2017-10-15T21:03:07.508Z,18.10
2017-10-15T21:05:35.240Z,19.93
2017-10-15T21:08:02.899Z,20.10
2017-10-15T21:10:30.519Z,20.03
2017-10-15T21:12:58.196Z,19.03
2017-10-15T21:15:25.859Z,18.23
2017-10-15T21:17:53.465Z,16.40
2017-10-15T21:20:21.091Z,15.87
2017-10-15T21:22:48.807Z,15.47
2017-10-15T21:25:16.491Z,17.00
2017-10-15T21:27:44.169Z,17.30
2017-10-15T21:30:11.901Z,17.27
2017-10-15T21:32:39.515Z,17.47
2017-10-15T21:35:07.152Z,15.87
2017-10-15T21:37:34.827Z,17.03
2017-10-15T21:40:02.536Z,14.90
2017-10-15T21:42:30.207Z,15.63
2017-10-15T21:44:57.939Z,14.20
2017-10-15T21:47:25.563Z,15.50
2017-10-15T21:49:53.245Z,16.70
2017-10-15T21:52:20.918Z,16.83
2017-10-15T21:54:48.592Z,15.10
2017-10-15T21:57:16.218Z,16.13
2017-10-15T21:59:43.948Z,16.87
2017-10-15T22:02:11.564Z,18.00
2017-10-15T22:04:39.245Z,19.47
2017-10-15T22:07:07.031Z,18.93
2017-10-15T22:09:34.671Z,21.83
2017-10-15T22:12:02.294Z,21.77
2017-10-15T22:14:30.017Z,24.63
2017-10-15T22:16:57.700Z,29.53
2017-10-15T22:19:25.316Z,30.60
2017-10-15T22:21:58.400Z,27.00
2017-10-15T22:24:26.090Z,21.77
2017-10-15T22:26:53.707Z,23.23
2017-10-15T22:29:21.377Z,22.37
2017-10-15T22:31:49.060Z,21.97
2017-10-15T22:34:16.671Z,18.50
2017-10-15T22:36:44.411Z,18.10
2017-10-15T22:39:12.030Z,17.23
2017-10-15T22:41:39.655Z,18.10
2017-10-15T22:44:07.383Z,18.67
2017-10-15T22:46:34.999Z,17.27
2017-10-15T22:49:02.631Z,17.13
2017-10-15T22:51:30.344Z,17.20
2017-10-15T22:53:57.950Z,16.37
2017-10-15T22:56:25.571Z,17.33
2017-10-15T22:58:53.327Z,15.73
2017-10-15T23:01:20.999Z,15.87
2017-10-15T23:03:48.676Z,14.97
2017-10-15T23:06:16.341Z,15.20
2017-10-15T23:08:43.963Z,14.27
2017-10-15T23:11:11.581Z,14.27
2017-10-15T23:13:39.255Z,15.07
2017-10-15T23:16:06.871Z,15.70
2017-10-15T23:18:34.543Z,18.77
2017-10-15T23:21:02.211Z,20.23
2017-10-15T23:23:29.820Z,21.07
2017-10-15T23:25:57.498Z,17.30
2017-10-15T23:28:25.155Z,18.83
2017-10-15T23:30:52.768Z,17.00
2017-10-15T23:33:20.383Z,16.07
2017-10-15T23:35:48.108Z,13.80
2017-10-15T23:38:15.718Z,14.90
2017-10-15T23:40:43.327Z,16.20
2017-10-15T23:43:11.003Z,13.97
2017-10-15T23:45:38.697Z,13.23
2017-10-15T23:48:06.327Z,13.10
2017-10-15T23:50:34.019Z,13.17
2017-10-15T23:53:01.640Z,13.27
2017-10-15T23:55:29.270Z,12.73
2017-10-15T23:57:56.940Z,12.40
